createdAt,value
2018-07-01T00:00:23.325Z,84.05
2018-07-01T00:01:23.553Z,84.34
2018-07-01T00:02:23.479Z,83.58
2018-07-01T00:03:23.251Z,83.19
2018-07-01T00:04:23.228Z,83.76
2018-07-01T00:05:23.201Z,83.95
2018-07-01T00:06:23.177Z,83.48
2018-07-01T00:07:23.151Z,83.19
2018-07-01T00:08:23.128Z,83.19
2018-07-01T00:09:23.106Z,84.34
2018-07-01T00:10:23.084Z,83.67
2018-07-01T00:11:23.055Z,83.86
2018-07-01T00:12:23.035Z,84.15
2018-07-01T00:13:23.005Z,83.67
2018-07-01T00:14:23.015Z,84.15
2018-07-01T00:15:22.956Z,85.39
2018-07-01T00:16:22.930Z,84.97
2018-07-01T00:17:22.918Z,84.78
2018-07-01T00:18:22.885Z,84.78
2018-07-01T00:19:22.862Z,84.58
2018-07-01T00:20:22.835Z,84.49
2018-07-01T00:21:22.809Z,84.78
2018-07-01T00:22:22.788Z,85.25
2018-07-01T00:23:22.759Z,85.83
2018-07-01T00:24:22.734Z,85.45
2018-07-01T00:25:22.710Z,85.93
2018-07-01T00:26:22.686Z,86.02
2018-07-01T00:27:22.665Z,86.31
2018-07-01T00:28:22.637Z,86.12
2018-07-01T00:29:22.613Z,86.60
2018-07-01T00:30:22.795Z,86.02
2018-07-01T00:31:22.565Z,85.74
2018-07-01T00:32:22.541Z,86.69
2018-07-01T00:33:22.515Z,86.88
2018-07-01T00:34:22.496Z,86.31
2018-07-01T00:35:22.464Z,86.88
2018-07-01T00:36:22.442Z,86.79
2018-07-01T00:37:22.419Z,87.84
2018-07-01T00:38:22.393Z,86.84
2018-07-01T00:39:22.368Z,87.55
2018-07-01T00:40:22.345Z,86.88
2018-07-01T00:41:22.323Z,86.31
2018-07-01T00:42:22.293Z,86.31
2018-07-01T00:43:22.269Z,86.21
2018-07-01T00:44:22.244Z,86.31
2018-07-01T00:45:22.218Z,86.12
2018-07-01T00:46:22.194Z,87.27
2018-07-01T00:47:22.175Z,86.41
2018-07-01T00:48:22.153Z,86.21
2018-07-01T00:49:22.121Z,86.69
2018-07-01T00:50:22.106Z,86.88
2018-07-01T00:51:22.070Z,87.46
2018-07-01T00:52:22.047Z,87.32
2018-07-01T00:53:22.019Z,86.79
2018-07-01T00:54:21.996Z,87.08
2018-07-01T00:55:21.975Z,87.41
2018-07-01T00:56:21.945Z,88.03
2018-07-01T00:57:21.921Z,87.90
2018-07-01T00:58:21.897Z,88.56
2018-07-01T00:59:21.877Z,87.55
2018-07-01T01:00:21.847Z,87.37
2018-07-01T01:01:21.823Z,87.32
2018-07-01T01:02:21.799Z,87.46
2018-07-01T01:03:21.774Z,87.90
2018-07-01T01:04:21.748Z,88.28
2018-07-01T01:05:21.728Z,87.80
2018-07-01T01:06:21.698Z,88.47
2018-07-01T01:07:21.672Z,89.14
2018-07-01T01:08:21.648Z,89.14
2018-07-01T01:09:21.624Z,89.23
2018-07-01T01:10:21.603Z,89.62
2018-07-01T01:11:21.578Z,89.62
2018-07-01T01:12:21.549Z,90.19
2018-07-01T01:13:21.525Z,89.04
2018-07-01T01:14:21.501Z,89.62
2018-07-01T01:15:21.476Z,89.90
2018-07-01T01:16:21.460Z,90.00
2018-07-01T01:17:21.425Z,90.58
2018-07-01T01:18:21.401Z,90.77
2018-07-01T01:19:21.374Z,88.28
2018-07-01T01:20:21.349Z,89.18
2018-07-01T01:21:21.327Z,89.14
2018-07-01T01:22:21.304Z,88.32
2018-07-01T01:23:21.277Z,89.04
2018-07-01T01:24:21.252Z,89.04
2018-07-01T01:25:21.225Z,89.57
2018-07-01T01:26:21.202Z,90.05
2018-07-01T01:27:21.175Z,88.70
2018-07-01T01:28:21.150Z,89.14
2018-07-01T01:29:21.126Z,88.76
2018-07-01T01:30:21.103Z,88.51
2018-07-01T01:31:21.074Z,89.76
2018-07-01T01:32:21.051Z,89.37
2018-07-01T01:33:21.028Z,90.33
2018-07-01T01:34:21.004Z,88.61
2018-07-01T01:35:20.979Z,88.37
2018-07-01T01:36:20.954Z,88.32
2018-07-01T01:37:20.932Z,88.37
2018-07-01T01:38:20.905Z,89.76
2018-07-01T01:39:20.877Z,88.99
2018-07-01T01:40:20.852Z,88.51
2018-07-01T01:41:20.828Z,88.42
2018-07-01T01:42:20.813Z,89.23
2018-07-01T01:43:20.779Z,90.48
2018-07-01T01:44:20.755Z,89.33
2018-07-01T01:45:20.730Z,88.66
2018-07-01T01:46:20.711Z,90.09
2018-07-01T01:47:20.678Z,90.77
2018-07-01T01:48:20.655Z,90.48
2018-07-01T01:49:20.629Z,90.48
2018-07-01T01:50:20.607Z,89.14
2018-07-01T01:51:20.583Z,89.14
2018-07-01T01:52:20.559Z,89.81
2018-07-01T01:53:20.530Z,90.67
2018-07-01T01:54:20.506Z,90.09
2018-07-01T01:55:20.480Z,91.25
2018-07-01T01:56:20.456Z,90.39
2018-07-01T01:57:20.430Z,89.72
2018-07-01T01:58:20.404Z,90.67
2018-07-01T01:59:20.378Z,91.44
2018-07-01T02:00:20.353Z,91.44
2018-07-01T02:01:20.329Z,91.15
2018-07-01T02:02:20.303Z,90.29
2018-07-01T02:03:20.278Z,90.86
2018-07-01T02:04:20.254Z,90.86
2018-07-01T02:05:20.238Z,91.53
2018-07-01T02:06:20.208Z,92.30
2018-07-01T02:07:20.384Z,91.72
2018-07-01T02:08:20.160Z,91.72
2018-07-01T02:09:20.332Z,92.21
2018-07-01T02:10:20.105Z,91.97
2018-07-01T02:11:20.078Z,92.58
2018-07-01T02:12:20.058Z,92.49
2018-07-01T02:13:20.031Z,92.16
2018-07-01T02:14:20.007Z,91.58
2018-07-01T02:15:19.982Z,91.68
2018-07-01T02:16:19.956Z,91.87
2018-07-01T02:17:19.931Z,91.20
2018-07-01T02:18:19.909Z,92.25
2018-07-01T02:19:19.881Z,92.54
2018-07-01T02:20:19.857Z,93.21
2018-07-01T02:21:19.835Z,92.92
2018-07-01T02:22:19.811Z,91.68
2018-07-01T02:23:19.783Z,91.77
2018-07-01T02:24:19.756Z,90.72
2018-07-01T02:25:19.729Z,91.20
2018-07-01T02:26:19.703Z,91.97
2018-07-01T02:27:19.695Z,91.58
2018-07-01T02:28:19.656Z,91.97
2018-07-01T02:29:19.631Z,91.68
2018-07-01T02:30:19.605Z,91.87
2018-07-01T02:31:19.582Z,91.39
2018-07-01T02:32:19.559Z,92.06
2018-07-01T02:33:19.530Z,92.83
2018-07-01T02:34:20.111Z,93.35
2018-07-01T02:35:19.487Z,93.21
2018-07-01T02:36:19.454Z,92.92
2018-07-01T02:37:19.427Z,93.35
2018-07-01T02:38:19.416Z,92.78
2018-07-01T02:39:19.376Z,93.35
2018-07-01T02:40:19.352Z,92.78
2018-07-01T02:41:19.332Z,92.69
2018-07-01T02:42:19.513Z,92.88
2018-07-01T02:43:19.480Z,93.26
2018-07-01T02:44:19.454Z,93.35
2018-07-01T02:45:19.429Z,93.55
2018-07-01T02:46:19.410Z,92.97
2018-07-01T02:47:19.377Z,93.35
2018-07-01T02:48:19.150Z,93.26
2018-07-01T02:49:19.128Z,93.26
2018-07-01T02:50:19.114Z,93.26
2018-07-01T02:51:19.074Z,93.07
2018-07-01T02:52:19.056Z,93.16
2018-07-01T02:53:19.025Z,93.55
2018-07-01T02:54:19.005Z,93.79
2018-07-01T02:55:18.974Z,93.93
2018-07-01T02:56:18.950Z,93.16
2018-07-01T02:57:18.931Z,93.84
2018-07-01T02:58:18.897Z,93.07
2018-07-01T02:59:18.872Z,93.64
2018-07-01T03:00:18.846Z,93.26
2018-07-01T03:01:18.824Z,94.02
2018-07-01T03:02:18.798Z,94.12
2018-07-01T03:03:18.782Z,94.79
2018-07-01T03:04:18.747Z,95.36
2018-07-01T03:05:18.721Z,94.89
2018-07-01T03:06:18.717Z,94.79
2018-07-01T03:07:18.673Z,94.02
2018-07-01T03:08:18.654Z,94.79
2018-07-01T03:09:18.821Z,95.36
2018-07-01T03:10:18.593Z,96.03
2018-07-01T03:11:18.568Z,95.56
2018-07-01T03:12:18.746Z,95.84
2018-07-01T03:13:18.520Z,95.75
2018-07-01T03:15:00.848Z,95.84
2018-07-01T03:16:00.622Z,95.94
2018-07-01T03:17:00.595Z,96.13
2018-07-01T03:18:00.567Z,95.84
2018-07-01T03:19:00.542Z,95.07
2018-07-01T03:20:00.516Z,95.17
2018-07-01T03:21:00.491Z,95.27
2018-07-01T03:22:00.470Z,94.70
2018-07-01T03:23:00.443Z,94.79
2018-07-01T03:24:00.417Z,95.84
2018-07-01T03:25:00.391Z,95.56
2018-07-01T03:26:00.365Z,94.50
2018-07-01T03:27:00.342Z,93.26
2018-07-01T03:28:00.312Z,94.02
2018-07-01T03:29:00.290Z,93.84
2018-07-01T03:30:00.264Z,93.64
2018-07-01T03:31:00.239Z,93.45
2018-07-01T03:32:00.213Z,93.35
2018-07-01T03:33:00.188Z,94.12
2018-07-01T03:34:00.164Z,94.60
2018-07-01T03:35:00.146Z,94.12
2018-07-01T03:36:00.117Z,93.93
2018-07-01T03:37:00.089Z,93.93
2018-07-01T03:38:00.061Z,93.16
2018-07-01T03:39:00.036Z,92.88
2018-07-01T03:40:00.016Z,93.07
2018-07-01T03:40:59.985Z,92.59
2018-07-01T03:41:59.963Z,92.97
2018-07-01T03:42:59.937Z,92.88
2018-07-01T03:43:59.911Z,92.40
2018-07-01T03:44:59.886Z,93.07
2018-07-01T03:45:59.860Z,92.69
2018-07-01T03:46:59.845Z,92.78
2018-07-01T03:47:59.813Z,92.06
2018-07-01T03:48:59.784Z,91.83
2018-07-01T03:49:59.758Z,91.87
2018-07-01T03:50:59.733Z,91.68
2018-07-01T03:51:59.708Z,91.72
2018-07-01T03:52:59.684Z,91.34
2018-07-01T03:53:59.662Z,90.29
2018-07-01T03:54:59.637Z,90.44
2018-07-01T03:55:59.616Z,90.00
2018-07-01T03:56:59.587Z,89.90
2018-07-01T03:57:59.561Z,90.09
2018-07-01T03:58:59.536Z,90.48
2018-07-01T03:59:59.514Z,89.43
2018-07-01T04:00:59.489Z,89.52
2018-07-01T04:01:59.466Z,89.14
2018-07-01T04:02:59.460Z,89.14
2018-07-01T04:03:59.415Z,88.76
2018-07-01T04:04:59.592Z,88.03
2018-07-01T04:05:59.572Z,87.94
2018-07-01T04:06:59.547Z,87.90
2018-07-01T04:07:59.527Z,88.37
2018-07-01T04:08:59.297Z,88.32
2018-07-01T04:09:59.271Z,87.32
2018-07-01T04:10:59.248Z,87.94
2018-07-01T04:11:59.225Z,88.32
2018-07-01T04:12:59.201Z,87.90
2018-07-01T04:13:59.178Z,88.03
2018-07-01T04:14:59.158Z,88.03
2018-07-01T04:15:59.129Z,86.88
2018-07-01T04:16:59.115Z,86.88
2018-07-01T04:17:59.082Z,86.41
2018-07-01T04:18:59.057Z,86.79
2018-07-01T04:19:59.033Z,86.69
2018-07-01T04:20:59.011Z,85.64
2018-07-01T04:21:58.989Z,85.74
2018-07-01T04:22:58.967Z,86.12
2018-07-01T04:23:58.945Z,85.16
2018-07-01T04:24:58.919Z,85.64
2018-07-01T04:25:58.895Z,85.06
2018-07-01T04:26:58.872Z,86.31
2018-07-01T04:27:58.847Z,86.60
2018-07-01T04:28:58.825Z,85.83
2018-07-01T04:29:58.806Z,86.41
2018-07-01T04:30:58.868Z,86.31
2018-07-01T04:31:58.758Z,85.58
2018-07-01T04:32:58.734Z,84.91
2018-07-01T04:33:58.718Z,85.30
2018-07-01T04:34:58.691Z,85.78
2018-07-01T04:35:58.667Z,84.68
2018-07-01T04:36:58.647Z,84.82
2018-07-01T04:37:58.620Z,84.53
2018-07-01T04:38:58.597Z,83.76
2018-07-01T04:39:58.574Z,83.86
2018-07-01T04:40:58.551Z,84.82
2018-07-01T04:41:58.533Z,84.15
2018-07-01T04:42:58.508Z,83.38
2018-07-01T04:43:58.489Z,83.76
2018-07-01T04:44:58.464Z,83.95
2018-07-01T04:45:58.445Z,84.38
2018-07-01T04:46:58.621Z,83.81
2018-07-01T04:47:58.395Z,82.79
2018-07-01T04:48:58.372Z,82.51
2018-07-01T04:49:58.356Z,81.54
2018-07-01T04:50:58.328Z,81.64
2018-07-01T04:51:58.509Z,81.64
2018-07-01T04:52:58.283Z,81.59
2018-07-01T04:53:58.263Z,80.43
2018-07-01T04:54:58.266Z,80.24
2018-07-01T04:55:58.223Z,79.57
2018-07-01T04:56:58.196Z,79.96
2018-07-01T04:57:58.173Z,80.82
2018-07-01T04:58:58.151Z,82.03
2018-07-01T04:59:58.128Z,80.30
2018-07-01T05:00:58.109Z,80.43
2018-07-01T05:01:58.092Z,80.15
2018-07-01T05:02:58.066Z,79.32
2018-07-01T05:03:58.043Z,78.75
2018-07-01T05:04:58.020Z,77.78
2018-07-01T05:05:58.000Z,78.75
2018-07-01T05:06:57.981Z,78.84
2018-07-01T05:07:58.161Z,78.59
2018-07-01T05:08:57.937Z,77.63
2018-07-01T05:09:57.909Z,77.25
2018-07-01T05:10:57.889Z,77.15
2018-07-01T05:11:57.870Z,77.53
2018-07-01T05:12:58.046Z,77.34
2018-07-01T05:13:57.827Z,77.53
2018-07-01T05:20:35.237Z,78.17
2018-07-01T05:21:35.008Z,77.59
2018-07-01T05:22:34.986Z,77.59
2018-07-01T05:23:34.963Z,77.88
2018-07-01T05:24:34.942Z,77.59
2018-07-01T05:25:34.920Z,77.40
2018-07-01T05:26:36.000Z,77.11
2018-07-01T05:59:11.972Z,72.45
2018-07-01T06:00:11.750Z,70.95
2018-07-01T06:02:36.238Z,70.98
2018-07-01T06:03:38.633Z,72.52
2018-07-01T06:04:36.193Z,71.65
2018-07-01T06:05:36.171Z,72.03
2018-07-01T06:06:35.949Z,72.90
2018-07-01T06:08:20.710Z,72.61
2018-07-01T06:09:18.266Z,73.38
2018-07-01T06:10:18.044Z,72.71
2018-07-01T06:11:18.224Z,71.69
2018-07-01T06:12:18.204Z,71.36
2018-07-01T06:13:18.587Z,70.88
2018-07-01T06:14:18.164Z,71.36
2018-07-01T06:15:18.152Z,70.88
2018-07-01T06:16:18.129Z,71.46
2018-07-01T06:17:17.908Z,72.29
2018-07-01T06:18:17.888Z,74.46
2018-07-01T06:19:18.067Z,74.75
2018-07-01T06:20:17.845Z,75.13
2018-07-01T06:21:18.028Z,74.60
2018-07-01T06:22:17.806Z,73.47
2018-07-01T06:23:17.786Z,71.46
2018-07-01T06:24:17.767Z,70.40
2018-07-01T06:25:17.950Z,70.40
2018-07-01T06:27:42.246Z,69.38
2018-07-01T06:28:42.226Z,69.18
2018-07-01T06:29:42.206Z,69.67
2018-07-01T06:30:42.194Z,69.63
2018-07-01T06:31:42.574Z,70.30
2018-07-01T06:32:42.163Z,71.04
2018-07-01T06:33:42.126Z,71.26
2018-07-01T06:34:41.908Z,70.05
2018-07-01T06:35:41.892Z,69.85
2018-07-01T06:36:42.075Z,69.85
2018-07-01T06:37:42.052Z,69.09
2018-07-01T06:38:42.033Z,69.38
2018-07-01T06:39:42.014Z,68.35
2018-07-01T06:40:41.793Z,68.51
2018-07-01T06:42:24.134Z,67.93
2018-07-01T06:43:23.913Z,68.03
2018-07-01T06:44:23.899Z,67.26
2018-07-01T06:45:23.875Z,67.16
2018-07-01T06:46:24.059Z,66.49
2018-07-01T06:47:24.039Z,67.65
2018-07-01T06:48:23.820Z,67.35
2018-07-01T06:49:23.845Z,66.81
2018-07-01T06:50:23.785Z,66.33
2018-07-01T06:51:23.969Z,66.68
2018-07-01T06:52:23.949Z,66.58
2018-07-01T06:53:23.933Z,66.74
2018-07-01T06:54:23.912Z,67.16
2018-07-01T06:55:23.696Z,66.78
2018-07-01T06:56:24.942Z,65.81
2018-07-01T06:57:23.659Z,66.49
2018-07-01T06:58:23.841Z,66.52
2018-07-01T06:59:23.619Z,66.39
2018-07-01T07:00:23.602Z,66.46
2018-07-01T07:01:23.587Z,65.40
2018-07-01T07:02:23.595Z,64.28
2018-07-01T07:03:23.551Z,64.66
2018-07-01T07:04:23.533Z,64.50
2018-07-01T07:05:23.513Z,64.53
2018-07-01T07:06:23.496Z,63.95
2018-07-01T07:07:23.680Z,61.71
2018-07-01T07:08:23.468Z,62.99
2018-07-01T07:09:23.447Z,61.55
2018-07-01T07:10:23.427Z,61.80
2018-07-01T07:11:23.409Z,61.68
2018-07-01T07:12:23.393Z,61.25
2018-07-01T07:13:23.577Z,61.38
2018-07-01T07:14:23.363Z,60.90
2018-07-01T07:15:23.543Z,61.71
2018-07-01T07:16:23.602Z,60.31
2018-07-01T07:17:23.305Z,59.16
2018-07-01T07:18:23.288Z,59.64
2018-07-01T07:19:23.270Z,58.42
2018-07-01T07:20:23.456Z,57.84
2018-07-01T07:21:23.441Z,58.58
2018-07-01T07:23:05.582Z,58.68
2018-07-01T07:24:05.363Z,57.64
2018-07-01T07:25:05.550Z,58.70
2018-07-01T07:26:05.330Z,58.68
2018-07-01T07:28:29.831Z,57.84
2018-07-01T07:30:54.134Z,58.51
2018-07-01T07:31:53.924Z,59.30
2018-07-01T07:32:53.894Z,60.97
2018-07-01T07:33:53.877Z,61.74
2018-07-01T07:34:53.860Z,61.64
2018-07-01T07:35:53.847Z,59.58
2018-07-01T07:36:54.030Z,57.67
2018-07-01T07:37:54.015Z,57.03
2018-07-01T07:38:53.999Z,55.43
2018-07-01T07:39:53.982Z,55.07
2018-07-01T07:40:53.972Z,56.00
2018-07-01T07:41:53.955Z,57.32
2018-07-01T07:43:36.093Z,58.20
2018-07-01T07:44:35.875Z,59.65
2018-07-01T07:45:37.071Z,59.30
2018-07-01T07:46:35.843Z,59.16
2018-07-01T07:47:35.826Z,57.42
2018-07-01T07:48:35.807Z,57.23
2018-07-01T07:49:35.793Z,56.91
2018-07-01T07:50:35.777Z,57.07
2018-07-01T07:51:35.967Z,57.23
2018-07-01T07:52:35.951Z,56.87
2018-07-01T07:53:35.934Z,56.32
2018-07-01T07:54:35.915Z,55.65
2018-07-01T07:55:35.899Z,55.90
2018-07-01T07:56:35.883Z,55.55
2018-07-01T07:57:35.667Z,54.19
2018-07-01T07:58:35.650Z,53.78
2018-07-01T07:59:36.450Z,54.77
2018-07-01T08:00:35.821Z,53.33
2018-07-01T08:04:27.065Z,50.57
2018-07-01T08:05:24.430Z,49.99
2018-07-01T08:06:24.411Z,49.58
2018-07-01T08:07:24.448Z,51.32
2018-07-01T08:08:24.193Z,50.28
2018-07-01T08:09:24.366Z,50.76
2018-07-01T08:10:24.358Z,50.18
2018-07-01T08:11:24.338Z,50.18
2018-07-01T08:12:24.324Z,48.08
2018-07-01T08:13:24.308Z,48.08
2018-07-01T08:14:24.091Z,47.99
2018-07-01T08:15:25.090Z,46.90
2018-07-01T08:16:24.062Z,47.58
2018-07-01T08:17:24.248Z,48.13
2018-07-01T08:18:24.234Z,48.32
2018-07-01T08:19:24.826Z,50.07
2018-07-01T08:20:24.209Z,50.65
2018-07-01T08:21:23.993Z,51.25
2018-07-01T08:22:24.185Z,49.46
2018-07-01T08:23:23.968Z,49.82
2018-07-01T08:24:24.163Z,47.79
2018-07-01T08:25:24.137Z,47.48
2018-07-01T08:26:23.923Z,47.60
2018-07-01T08:27:24.108Z,47.04
2018-07-01T08:28:26.925Z,47.04
2018-07-01T08:29:23.878Z,46.36
2018-07-01T08:30:24.071Z,45.42
2018-07-01T08:31:24.057Z,43.95
2018-07-01T08:32:24.042Z,43.73
2018-07-01T08:33:26.649Z,43.54
2018-07-01T08:34:24.015Z,42.55
2018-07-01T08:35:24.002Z,43.30
2018-07-01T08:36:23.791Z,43.57
2018-07-01T08:37:23.777Z,44.17
2018-07-01T08:38:23.962Z,43.78
2018-07-01T08:39:23.744Z,43.90
2018-07-01T08:40:23.934Z,43.98
2018-07-01T08:41:23.919Z,44.21
2018-07-01T08:42:23.906Z,43.03
2018-07-01T08:43:23.893Z,44.34
2018-07-01T08:44:23.683Z,45.42
2018-07-01T08:45:23.665Z,44.98
2018-07-01T08:46:23.689Z,44.60
2018-07-01T08:47:23.637Z,43.44
2018-07-01T08:48:23.622Z,43.55
2018-07-01T08:49:23.610Z,43.46
2018-07-01T08:50:23.596Z,43.65
2018-07-01T08:51:23.585Z,43.65
2018-07-01T08:52:23.841Z,44.53
2018-07-01T08:53:23.556Z,44.06
2018-07-01T08:54:23.542Z,43.77
2018-07-01T08:55:23.532Z,43.95
2018-07-01T08:56:23.518Z,44.54
2018-07-01T08:57:23.707Z,42.34
2018-07-01T08:58:23.694Z,42.90
2018-07-01T08:59:23.681Z,43.38
2018-07-01T09:00:24.476Z,43.41
2018-07-01T09:01:23.653Z,42.80
2018-07-01T09:02:23.639Z,42.75
2018-07-01T09:03:23.432Z,42.65
2018-07-01T09:04:23.617Z,42.34
2018-07-01T09:05:23.805Z,43.85
2018-07-01T09:06:23.591Z,44.43
2018-07-01T09:07:23.576Z,44.54
2018-07-01T09:08:23.570Z,43.38
2018-07-01T09:09:23.552Z,42.41
2018-07-01T09:10:23.538Z,43.23
2018-07-01T09:11:23.529Z,44.31
2018-07-01T09:12:26.138Z,44.12
2018-07-01T09:13:23.308Z,43.73
2018-07-01T09:14:23.489Z,43.82
2018-07-01T09:15:23.272Z,43.46
2018-07-01T09:16:23.261Z,42.80
2018-07-01T09:17:23.449Z,41.58
2018-07-01T09:18:26.064Z,40.91
2018-07-01T09:19:23.429Z,42.09
2018-07-01T09:21:05.574Z,39.80
2018-07-01T09:22:50.358Z,38.65
2018-07-01T09:23:47.712Z,39.03
2018-07-01T09:24:51.129Z,40.34
2018-07-01T09:25:47.684Z,41.31
2018-07-01T09:26:47.672Z,40.66
2018-07-01T09:27:47.659Z,40.26
2018-07-01T09:28:47.651Z,39.70
2018-07-01T09:29:47.636Z,40.50
2018-07-01T09:30:47.425Z,39.03
2018-07-01T09:31:47.411Z,39.41
2018-07-01T09:32:47.398Z,39.88
2018-07-01T09:33:47.387Z,38.70
2018-07-01T09:34:47.397Z,40.13
2018-07-01T09:35:47.363Z,41.10
2018-07-01T09:36:47.350Z,41.00
2018-07-01T09:37:47.339Z,40.73
2018-07-01T09:38:47.328Z,40.17
2018-07-01T09:39:47.321Z,40.85
2018-07-01T09:40:47.304Z,40.50
2018-07-01T09:41:47.295Z,39.74
2018-07-01T09:42:47.283Z,39.74
2018-07-01T09:43:47.271Z,40.81
2018-07-01T09:44:47.260Z,41.10
2018-07-01T09:45:47.248Z,41.10
2018-07-01T09:46:47.239Z,39.76
2018-07-01T09:47:47.227Z,40.33
2018-07-01T09:48:47.212Z,41.00
2018-07-01T09:49:47.203Z,40.48
2018-07-01T09:50:47.249Z,39.88
2018-07-01T09:51:47.181Z,40.13
2018-07-01T09:52:47.169Z,41.16
2018-07-01T09:53:47.156Z,41.78
2018-07-01T09:54:47.147Z,41.12
2018-07-01T09:55:47.138Z,40.54
2018-07-01T09:56:47.121Z,41.31
2018-07-01T09:57:47.110Z,41.00
2018-07-01T09:58:47.099Z,40.64
2018-07-01T09:59:47.087Z,39.67
2018-07-01T10:00:47.075Z,39.95
2018-07-01T10:01:47.065Z,40.36
2018-07-01T10:02:47.061Z,39.22
2018-07-01T10:03:47.044Z,38.58
2018-07-01T10:04:47.032Z,40.56
2018-07-01T10:05:47.020Z,40.03
2018-07-01T10:06:47.012Z,41.31
2018-07-01T10:07:46.996Z,40.25
2018-07-01T10:08:46.992Z,39.57
2018-07-01T10:09:46.974Z,40.56
2018-07-01T10:10:46.967Z,39.98
2018-07-01T10:11:46.953Z,39.32
2018-07-01T10:12:46.943Z,39.51
2018-07-01T10:13:46.935Z,39.12
2018-07-01T10:14:46.920Z,38.83
2018-07-01T10:15:47.921Z,40.01
2018-07-01T10:16:46.899Z,39.80
2018-07-01T10:17:46.886Z,40.56
2018-07-01T10:18:47.140Z,41.26
2018-07-01T10:19:47.066Z,40.69
2018-07-01T10:20:47.055Z,41.05
2018-07-01T10:21:46.853Z,41.24
2018-07-01T10:22:46.833Z,41.22
2018-07-01T10:23:46.825Z,40.92
2018-07-01T10:24:46.815Z,40.83
2018-07-01T10:25:46.798Z,40.08
2018-07-01T10:26:46.787Z,40.21
2018-07-01T10:27:46.781Z,40.67
2018-07-01T10:28:46.775Z,40.87
2018-07-01T10:29:46.756Z,40.40
2018-07-01T10:30:46.948Z,41.83
2018-07-01T10:31:46.734Z,42.90
2018-07-01T10:32:46.724Z,42.97
2018-07-01T10:33:46.710Z,42.97
2018-07-01T10:34:46.699Z,42.71
2018-07-01T10:35:46.689Z,42.44
2018-07-01T10:36:46.677Z,42.07
2018-07-01T10:37:46.666Z,41.58
2018-07-01T10:38:46.657Z,41.31
2018-07-01T10:39:46.645Z,41.37
2018-07-01T10:40:46.683Z,42.29
2018-07-01T10:41:46.624Z,41.58
2018-07-01T10:42:46.617Z,42.65
2018-07-01T10:43:46.601Z,42.46
2018-07-01T10:44:46.602Z,43.16
2018-07-01T10:45:46.628Z,42.96
2018-07-01T10:46:46.567Z,41.80
2018-07-01T10:47:46.559Z,41.02
2018-07-01T10:48:46.550Z,41.95
2018-07-01T10:49:46.535Z,43.19
2018-07-01T10:50:46.525Z,43.79
2018-07-01T10:51:46.643Z,43.33
2018-07-01T10:52:46.501Z,43.08
2018-07-01T10:53:46.506Z,41.41
2018-07-01T10:54:46.480Z,41.89
2018-07-01T10:55:46.466Z,42.19
2018-07-01T10:56:46.454Z,42.30
2018-07-01T10:57:46.447Z,42.22
2018-07-01T10:58:46.436Z,43.33
2018-07-01T10:59:46.421Z,41.99
2018-07-01T11:00:46.413Z,42.65
2018-07-01T11:01:46.403Z,42.41
2018-07-01T11:02:46.389Z,42.92
2018-07-01T11:03:46.377Z,42.75
2018-07-01T11:04:46.371Z,41.99
2018-07-01T11:05:46.352Z,41.33
2018-07-01T11:06:46.343Z,41.47
2018-07-01T11:07:46.341Z,40.29
2018-07-01T11:08:46.319Z,40.48
2018-07-01T11:09:46.309Z,39.65
2018-07-01T11:10:46.301Z,39.41
2018-07-01T11:11:46.342Z,41.36
2018-07-01T11:12:46.276Z,40.58
2018-07-01T11:13:46.268Z,41.00
2018-07-01T11:14:46.254Z,41.82
2018-07-01T11:15:46.244Z,41.53
2018-07-01T11:16:46.239Z,41.56
2018-07-01T11:17:46.221Z,43.21
2018-07-01T11:18:46.210Z,42.44
2018-07-01T11:19:46.200Z,42.17
2018-07-01T11:20:46.188Z,42.63
2018-07-01T11:21:46.186Z,42.26
2018-07-01T11:22:46.169Z,41.88
2018-07-01T11:23:46.158Z,41.78
2018-07-01T11:24:46.148Z,41.37
2018-07-01T11:25:46.134Z,42.76
2018-07-01T11:26:46.244Z,43.71
2018-07-01T11:27:46.112Z,43.44
2018-07-01T11:28:46.101Z,43.73
2018-07-01T11:29:46.089Z,44.21
2018-07-01T11:30:46.081Z,43.54
2018-07-01T11:31:46.067Z,43.65
2018-07-01T11:32:46.160Z,43.60
2018-07-01T11:33:46.047Z,42.44
2018-07-01T11:34:46.036Z,42.72
2018-07-01T11:35:46.023Z,42.34
2018-07-01T11:36:46.013Z,42.76
2018-07-01T11:37:46.200Z,44.26
2018-07-01T11:38:45.988Z,44.40
2018-07-01T11:39:45.975Z,44.07
2018-07-01T11:40:46.165Z,45.79
2018-07-01T11:41:46.157Z,45.16
2018-07-01T11:42:45.940Z,44.02
2018-07-01T11:43:45.926Z,43.85
2018-07-01T11:44:46.118Z,43.87
2018-07-01T11:45:45.901Z,42.71
2018-07-01T11:46:45.890Z,42.55
2018-07-01T11:47:45.877Z,42.75
2018-07-01T11:48:45.862Z,41.10
2018-07-01T11:49:45.850Z,42.26
2018-07-01T11:50:45.837Z,42.07
2018-07-01T11:51:45.825Z,42.69
2018-07-01T11:52:45.813Z,40.87
2018-07-01T11:53:45.803Z,41.41
2018-07-01T11:54:45.791Z,41.47
2018-07-01T11:55:45.788Z,41.02
2018-07-01T11:56:45.766Z,42.49
2018-07-01T11:57:45.753Z,43.38
2018-07-01T11:58:45.741Z,43.27
2018-07-01T11:59:45.732Z,43.37
2018-07-01T12:00:45.725Z,43.07
2018-07-01T12:01:45.767Z,43.07
2018-07-01T12:02:45.695Z,43.24
2018-07-01T12:03:45.682Z,43.58
2018-07-01T12:05:02.951Z,42.82
2018-07-01T12:05:45.665Z,42.19
2018-07-01T12:06:45.649Z,41.53
2018-07-01T12:07:45.636Z,40.75
2018-07-01T12:08:45.629Z,40.77
2018-07-01T12:09:45.613Z,40.09
2018-07-01T12:10:49.032Z,39.86
2018-07-01T12:12:27.957Z,41.53
2018-07-01T12:13:27.741Z,41.61
2018-07-01T12:14:27.729Z,41.92
2018-07-01T12:15:27.720Z,41.27
2018-07-01T12:16:27.706Z,42.92
2018-07-01T12:17:30.924Z,42.07
2018-07-01T12:18:27.691Z,41.68
2018-07-01T12:19:27.675Z,42.71
2018-07-01T12:20:27.665Z,42.85
2018-07-01T12:21:27.653Z,42.44
2018-07-01T12:22:27.644Z,42.61
2018-07-01T12:23:27.638Z,43.63
2018-07-01T12:24:27.619Z,44.53
2018-07-01T12:25:27.811Z,44.33
2018-07-01T12:26:27.597Z,44.23
2018-07-01T12:27:27.586Z,44.02
2018-07-01T12:28:27.575Z,43.82
2018-07-01T12:29:27.563Z,43.65
2018-07-01T12:30:27.552Z,43.21
2018-07-01T12:31:27.545Z,42.34
2018-07-01T12:32:27.532Z,41.88
2018-07-01T12:33:27.519Z,42.14
2018-07-01T12:34:27.510Z,42.80
2018-07-01T12:35:27.495Z,43.77
2018-07-01T12:36:27.493Z,43.58
2018-07-01T12:37:27.472Z,44.12
2018-07-01T12:38:27.460Z,45.25
2018-07-01T12:39:27.451Z,45.98
2018-07-01T12:40:27.449Z,44.98
2018-07-01T12:41:27.429Z,43.27
2018-07-01T12:42:27.522Z,42.11
2018-07-01T12:43:27.405Z,41.80
2018-07-01T12:44:27.394Z,42.75
2018-07-01T12:45:27.381Z,42.65
2018-07-01T12:46:27.371Z,42.26
2018-07-01T12:47:27.357Z,43.06
2018-07-01T12:48:27.345Z,42.40
2018-07-01T12:49:27.334Z,41.56
2018-07-01T12:50:27.323Z,43.09
2018-07-01T12:51:27.315Z,43.95
2018-07-01T12:52:27.304Z,44.23
2018-07-01T12:53:27.296Z,44.04
2018-07-01T12:54:27.281Z,43.58
2018-07-01T12:55:27.270Z,44.40
2018-07-01T12:56:27.284Z,43.43
2018-07-01T12:57:27.243Z,43.00
2018-07-01T12:58:27.232Z,43.60
2018-07-01T12:59:27.224Z,44.49
2018-07-01T13:00:27.218Z,43.37
2018-07-01T13:01:27.198Z,42.77
2018-07-01T13:02:27.196Z,42.99
2018-07-01T13:03:27.177Z,42.11
2018-07-01T13:04:27.167Z,42.50
2018-07-01T13:05:27.156Z,43.04
2018-07-01T13:06:27.146Z,44.26
2018-07-01T13:07:27.130Z,44.76
2018-07-01T13:08:27.169Z,44.64
2018-07-01T13:09:27.107Z,45.49
2018-07-01T13:10:27.096Z,45.42
2018-07-01T13:11:27.087Z,44.57
2018-07-01T13:12:27.075Z,44.45
2018-07-01T13:13:27.063Z,44.54
2018-07-01T13:14:27.051Z,44.54
2018-07-01T13:15:27.038Z,45.95
2018-07-01T13:16:27.028Z,46.46
2018-07-01T13:17:27.014Z,45.88
2018-07-01T13:18:27.024Z,47.11
2018-07-01T13:19:26.993Z,47.04
2018-07-01T13:20:26.985Z,46.70
2018-07-01T13:21:26.974Z,47.26
2018-07-01T13:22:26.956Z,47.60
2018-07-01T13:23:26.942Z,46.80
2018-07-01T13:24:26.930Z,46.83
2018-07-01T13:25:26.917Z,45.59
2018-07-01T13:26:26.904Z,45.59
2018-07-01T13:27:26.893Z,45.47
2018-07-01T13:28:26.880Z,46.44
2018-07-01T13:29:26.867Z,46.84
2018-07-01T13:30:26.853Z,47.06
2018-07-01T13:31:26.843Z,44.49
2018-07-01T13:32:26.833Z,42.94
2018-07-01T13:33:26.816Z,43.62
2018-07-01T13:34:26.806Z,44.32
2018-07-01T13:35:26.788Z,43.95
2018-07-01T13:36:26.777Z,43.23
2018-07-01T13:37:26.764Z,43.79
2018-07-01T13:38:26.749Z,44.27
2018-07-01T13:39:26.741Z,43.54
2018-07-01T13:40:26.728Z,44.60
2018-07-01T13:41:26.714Z,43.82
2018-07-01T13:42:26.708Z,44.40
2018-07-01T13:43:26.690Z,43.48